Flight Track Log - Related Links

Times and Time Zones

All times are in EDT time to prevent confusion due to time zone crossing. See the SKW5517 flight status page for this flight to view local times or setup timezone preferences in your user account.

Time Position Orientation Groundspeed Altitude Reporting Facility
EDT Latitude Longitude Course Direction KTS MPH feet Rate Location/Type
Wed 08:38:21 PM 47.9597 -97.1803 356° North 143 165 1,500  Level Minneapolis Center
Wed 08:39:22 PM 48.0061 -97.1853 356° North 170 196 3,700 2,236 Climbing Minneapolis Center
Wed 08:40:11 PM 48.0183 -97.2347 290° West 204 235 5,600 2,504 Climbing Minneapolis Center
Wed 08:41:17 PM 47.9589 -97.3114 221° Southwest 265 305 8,500 2,015 Climbing Minneapolis Center
Wed 08:42:28 PM 47.8939 -97.4047 224° Southwest 275 316 10,200 1,489 Climbing Minneapolis Center
Wed 08:43:30 PM 47.8183 -97.5067 222° Southwest 331 381 11,800 1,935 Climbing Minneapolis Center
Wed 08:44:32 PM 47.7247 -97.6331 222° Southwest 364 419 14,200 1,887 Climbing Minneapolis Center
Wed 08:45:34 PM 47.6456 -97.7397 222° Southwest 375 432 15,700 1,210 Climbing Minneapolis Center
Wed 08:46:36 PM 47.5600 -97.8536 222° Southwest 392 451 16,700 1,015 Climbing Minneapolis Center
Wed 08:47:50 PM 47.4678 -97.9750 222° Southwest 400 460 18,000 1,182 Climbing Minneapolis Center
Wed 08:48:53 PM 47.3592 -98.1194 222° Southwest 427 491 19,400 1,056 Climbing Minneapolis Center
Wed 08:49:55 PM 47.2664 -98.2425 222° Southwest 442 509 20,200 823 Climbing Minneapolis Center
Wed 08:50:57 PM 47.1728 -98.3667 222° Southwest 450 518 21,100 871 Climbing Minneapolis Center
Wed 08:51:59 PM 47.0767 -98.4922 222° Southwest 459 528 22,000 823 Climbing Minneapolis Center
Wed 08:53:01 PM 46.9608 -98.6436 222° Southwest 465 535 22,800 726 Climbing Minneapolis Center
Wed 08:54:03 PM 46.8533 -98.7508 214° Southwest 469 540 23,500 750 Climbing Minneapolis Center
Wed 08:55:17 PM 46.7381 -98.8461 210° Southwest 476 548 24,500 794 Climbing Minneapolis Center
Wed 08:56:19 PM 46.6019 -98.9617 210° Southwest 474 545 25,300 677 Climbing Minneapolis Center
Wed 08:57:21 PM 46.4892 -99.0569 210° Southwest 473 544 25,900 726 Climbing Minneapolis Center
Wed 08:58:23 PM 46.3756 -99.1492 209° Southwest 470 541 26,800 871 Climbing Minneapolis Center
Wed 08:59:25 PM 46.2422 -99.2614 210° Southwest 465 535 27,700 571 Climbing Minneapolis Center
Wed 09:00:29 PM 46.1242 -99.3592 210° Southwest 463 533 28,000 667 Climbing Minneapolis Center
Wed 09:01:31 PM 46.0122 -99.4519 210° Southwest 464 534 29,100 774 Climbing Minneapolis Center
Wed 09:02:33 PM 45.9025 -99.5400 209° Southwest 456 525 29,600 581 Climbing Minneapolis Center
Wed 09:03:35 PM 45.7947 -99.6289 210° Southwest 451 519 30,300 581 Climbing Minneapolis Center
Wed 09:04:37 PM 45.6858 -99.7167 209° Southwest 450 518 30,800 629 Climbing Minneapolis Center
Wed 09:05:39 PM 45.5572 -99.8183 209° Southwest 444 511 31,600 581 Climbing Minneapolis Center
Wed 09:06:41 PM 45.4511 -99.9039 210° Southwest 440 506 32,000 194 Climbing Minneapolis Center
Wed 09:07:43 PM 45.3444 -99.9883 209° Southwest 441 507 32,000  Level Minneapolis Center
Wed 09:08:45 PM 45.2378 -100.0736 209° Southwest 444 511 32,000  Level Minneapolis Center
Wed 09:09:47 PM 45.1303 -100.1583 209° Southwest 449 517 32,000  Level Minneapolis Center
Wed 09:10:49 PM 45.0008 -100.2606 209° Southwest 451 519 32,000  Level Minneapolis Center
Wed 09:11:51 PM 44.8919 -100.3469 209° Southwest 453 521 32,000  Level Minneapolis Center
Wed 09:12:53 PM 44.7828 -100.4317 209° Southwest 452 520 32,000  Level Minneapolis Center
Wed 09:13:55 PM 44.6731 -100.5169 209° Southwest 451 519 32,000  Level Minneapolis Center
Wed 09:14:57 PM 44.5625 -100.6017 209° Southwest 452 520 32,000  Level Minneapolis Center
Wed 09:15:59 PM 44.4306 -100.7036 209° Southwest 452 520 32,000  Level Minneapolis Center
Wed 09:17:13 PM 44.3214 -100.7861 208° Southwest 450 518 32,000  Level Minneapolis Center
Wed 09:18:16 PM 44.1900 -100.8869 209° Southwest 449 517 32,000  Level Minneapolis Center
Wed 09:19:18 PM 44.0803 -100.9700 209° Southwest 449 517 32,000  Level Minneapolis Center
Wed 09:20:20 PM 43.9708 -101.0542 209° Southwest 449 517 32,000  Level Minneapolis Center
Wed 09:21:22 PM 43.8617 -101.1356 208° Southwest 447 514 32,000  Level Minneapolis Center
Wed 09:22:24 PM 43.7308 -101.2339 209° Southwest 446 513 32,000  Level Minneapolis Center
Wed 09:23:26 PM 43.6214 -101.3139 208° Southwest 444 511 32,000  Level Denver Center
Wed 09:24:28 PM 43.5122 -101.3933 208° Southwest 444 511 32,000 -435 Level Denver Center
Wed 09:25:30 PM 43.4022 -101.4758 209° Southwest 448 516 31,100 -927 Descending Denver Center
Wed 09:26:31 PM 43.2881 -101.5606 208° Southwest 462 532 30,100 -537 Descending Denver Center
Wed 09:27:33 PM 43.1700 -101.6392 206° Southwest 471 542 30,000 -32 Descending Denver Center
Wed 09:29:00 PM 43.0218 -101.7370 206° Southwest  Level FlightAware Approximate
Wed 09:29:37 PM 42.9272 -101.8017 206° Southwest 461 531 30,000  Level Denver Center
Wed 09:30:39 PM 42.7994 -101.8872 206° Southwest 459 528 30,000  Level Denver Center
Wed 09:31:40 PM 42.6889 -101.9594 206° Southwest 462 532 30,000  Level Denver Center
Wed 09:32:42 PM 42.5811 -102.0300 206° Southwest 451 519 30,000  Level Denver Center
Wed 09:33:56 PM 42.4531 -102.1153 206° Southwest 456 525 30,000  Level Denver Center
Wed 09:35:11 PM 42.2889 -102.2225 206° Southwest 455 524 30,000  Level Denver Center
Wed 09:36:12 PM 42.1794 -102.2931 206° Southwest 454 522 30,000  Level Denver Center
Wed 09:37:14 PM 42.0525 -102.3742 205° Southwest 452 520 30,000  Level Denver Center
Wed 09:38:16 PM 41.9458 -102.4444 206° Southwest 446 513 30,000  Level Denver Center
Wed 09:39:18 PM 41.8208 -102.5244 206° Southwest 445 512 30,000  Level Denver Center
Wed 09:40:20 PM 41.7192 -102.5894 206° Southwest 441 507 30,000  Level Denver Center
Wed 09:41:21 PM 41.5975 -102.6792 209° Southwest 441 507 30,000  Level Denver Center
Wed 09:42:23 PM 41.5111 -102.7719 219° Southwest 418 481 30,000  Level Denver Center
Wed 09:43:25 PM 41.4261 -102.8642 219° Southwest 412 474 30,000  Level Denver Center
Wed 09:44:27 PM 41.3258 -102.9736 219° Southwest 416 479 30,000  Level Denver Center
Wed 09:45:29 PM 41.2400 -103.0658 219° Southwest 415 478 30,000  Level Denver Center
Wed 09:46:31 PM 41.1403 -103.1739 219° Southwest 415 478 30,000 -242 Level Denver Center
Wed 09:47:33 PM 41.0539 -103.2667 219° Southwest 416 479 29,500 -871 Descending Denver Center
Wed 09:48:35 PM 40.9503 -103.3772 219° Southwest 419 482 28,200 -1,161 Descending Denver Center
Wed 09:49:37 PM 40.8578 -103.4753 219° Southwest 422 486 27,100 -1,113 Descending Denver Center
Wed 09:50:39 PM 40.7653 -103.5761 220° Southwest 427 491 25,900 -1,113 Descending Denver Center
Wed 09:51:41 PM 40.6714 -103.6758 219° Southwest 428 493 24,800 -1,016 Descending Denver Center
Wed 09:52:43 PM 40.5781 -103.7725 218° Southwest 424 488 23,800 -968 Descending Denver Center
Wed 09:53:45 PM 40.4844 -103.8700 218° Southwest 425 489 22,800 -1,016 Descending Denver Center
Wed 09:54:47 PM 40.3978 -103.9633 219° Southwest 366 421 21,700 -1,317 Descending Denver Center
Wed 09:55:48 PM 40.3175 -104.0481 219° Southwest 344 396 20,100 -1,512 Descending Denver Center
Wed 09:56:50 PM 40.2439 -104.1283 220° Southwest 338 389 18,600 -1,403 Descending Denver Center
Wed 09:57:52 PM 40.1708 -104.2083 220° Southwest 318 366 17,200 -1,355 Descending Denver Center
Wed 09:58:54 PM 40.1008 -104.2822 219° Southwest 322 371 15,800 -1,161 Descending Denver Center
Wed 09:59:56 PM 40.0400 -104.3494 220° Southwest 287 330 14,800 -871 Descending Denver Center
Wed 10:00:58 PM 39.9761 -104.4175 219° Southwest 276 318 14,000 -387 Descending Denver Center
Wed 10:02:00 PM 39.9406 -104.4931 238° Southwest 259 298 14,000 -339 Level Denver Center
Wed 10:03:02 PM 39.9486 -104.5933 276° West 260 299 13,300 -823 Descending Denver Center
Wed 10:04:04 PM 39.9500 -104.6836 271° West 251 289 12,300 -871 Descending Denver Center
Wed 10:05:06 PM 39.9522 -104.7656 272° West 208 239 11,500 -1,161 Descending Denver Center
Wed 10:06:08 PM 39.9542 -104.8389 272° West 204 235 9,900 -1,935 Descending Denver Center
Wed 10:07:10 PM 39.9289 -104.8983 241° Southwest 207 238 7,500 -2,323 Descending Denver Center

Login

Don't have an account? Register now (free) for customized features, flight alerts, and more!